sensor_id;sensor_type;location;lat;lon;timestamp;temperature;humidity
18337;DHT22;9294;51.106;7.028;2023-05-07T00:02:25;22.10;92.30
18337;DHT22;9294;51.106;7.028;2023-05-07T00:07:18;22.10;92.30
18337;DHT22;9294;51.106;7.028;2023-05-07T00:09:45;22.20;92.30
18337;DHT22;9294;51.106;7.028;2023-05-07T00:12:12;21.90;92.20
18337;DHT22;9294;51.106;7.028;2023-05-07T00:19:34;21.90;92.10
18337;DHT22;9294;51.106;7.028;2023-05-07T00:24:27;21.90;92.20
18337;DHT22;9294;51.106;7.028;2023-05-07T00:26:54;22.20;92.30
18337;DHT22;9294;51.106;7.028;2023-05-07T00:29:23;22.10;92.20
18337;DHT22;9294;51.106;7.028;2023-05-07T00:31:50;22.60;92.50
18337;DHT22;9294;51.106;7.028;2023-05-07T00:34:16;21.90;92.20
18337;DHT22;9294;51.106;7.028;2023-05-07T00:36:44;22.10;92.20
18337;DHT22;9294;51.106;7.028;2023-05-07T00:41:38;22.10;92.30
18337;DHT22;9294;51.106;7.028;2023-05-07T00:46:32;21.80;92.10
18337;DHT22;9294;51.106;7.028;2023-05-07T00:53:55;22.10;92.20
18337;DHT22;9294;51.106;7.028;2023-05-07T00:58:49;22.10;92.20
18337;DHT22;9294;51.106;7.028;2023-05-07T01:03:43;21.70;92.00
18337;DHT22;9294;51.106;7.028;2023-05-07T01:06:10;21.90;92.10
18337;DHT22;9294;51.106;7.028;2023-05-07T01:08:38;22.20;92.10
18337;DHT22;9294;51.106;7.028;2023-05-07T01:11:07;21.90;92.00
18337;DHT22;9294;51.106;7.028;2023-05-07T01:13:34;22.00;91.90
18337;DHT22;9294;51.106;7.028;2023-05-07T01:16:01;22.10;92.00
18337;DHT22;9294;51.106;7.028;2023-05-07T01:20:57;22.00;91.90
18337;DHT22;9294;51.106;7.028;2023-05-07T01:23:26;22.00;91.90
18337;DHT22;9294;51.106;7.028;2023-05-07T01:25:54;22.00;91.90
18337;DHT22;9294;51.106;7.028;2023-05-07T01:28:21;22.20;91.90
18337;DHT22;9294;51.106;7.028;2023-05-07T01:30:51;22.10;91.90
18337;DHT22;9294;51.106;7.028;2023-05-07T01:33:20;22.00;91.70
18337;DHT22;9294;51.106;7.028;2023-05-07T01:35:50;21.90;91.70
18337;DHT22;9294;51.106;7.028;2023-05-07T01:38:18;22.00;91.70
18337;DHT22;9294;51.106;7.028;2023-05-07T01:40:46;22.00;91.70
18337;DHT22;9294;51.106;7.028;2023-05-07T01:43:13;22.10;91.70
18337;DHT22;9294;51.106;7.028;2023-05-07T01:45:41;22.10;91.70
18337;DHT22;9294;51.106;7.028;2023-05-07T01:48:09;21.80;91.60
18337;DHT22;9294;51.106;7.028;2023-05-07T01:50:37;22.10;91.80
18337;DHT22;9294;51.106;7.028;2023-05-07T01:55:30;22.40;92.00
18337;DHT22;9294;51.106;7.028;2023-05-07T01:57:58;22.20;91.90
18337;DHT22;9294;51.106;7.028;2023-05-07T02:00:25;22.10;91.80
18337;DHT22;9294;51.106;7.028;2023-05-07T02:02:52;22.00;91.80
18337;DHT22;9294;51.106;7.028;2023-05-07T02:07:46;22.00;91.70
18337;DHT22;9294;51.106;7.028;2023-05-07T02:10:13;22.10;91.70
18337;DHT22;9294;51.106;7.028;2023-05-07T02:12:39;22.10;91.70
18337;DHT22;9294;51.106;7.028;2023-05-07T02:15:08;22.00;91.60
18337;DHT22;9294;51.106;7.028;2023-05-07T02:17:35;21.80;91.60
18337;DHT22;9294;51.106;7.028;2023-05-07T02:20:03;21.90;91.60
18337;DHT22;9294;51.106;7.028;2023-05-07T02:29:52;22.00;91.70
18337;DHT22;9294;51.106;7.028;2023-05-07T02:32:20;21.90;91.60
18337;DHT22;9294;51.106;7.028;2023-05-07T02:34:50;21.90;91.60
18337;DHT22;9294;51.106;7.028;2023-05-07T02:37:17;22.10;91.70
18337;DHT22;9294;51.106;7.028;2023-05-07T02:42:11;21.80;91.60
18337;DHT22;9294;51.106;7.028;2023-05-07T02:44:38;22.00;91.70
18337;DHT22;9294;51.106;7.028;2023-05-07T02:49:35;22.10;91.70
18337;DHT22;9294;51.106;7.028;2023-05-07T02:54:28;21.90;91.60
18337;DHT22;9294;51.106;7.028;2023-05-07T02:59:23;21.90;91.60
18337;DHT22;9294;51.106;7.028;2023-05-07T03:01:50;21.80;91.60
18337;DHT22;9294;51.106;7.028;2023-05-07T03:04:17;21.90;91.60
18337;DHT22;9294;51.106;7.028;2023-05-07T03:06:45;21.80;91.50
18337;DHT22;9294;51.106;7.028;2023-05-07T03:11:38;21.80;91.60
18337;DHT22;9294;51.106;7.028;2023-05-07T03:14:05;21.90;91.60
18337;DHT22;9294;51.106;7.028;2023-05-07T03:18:59;21.60;91.50
18337;DHT22;9294;51.106;7.028;2023-05-07T03:23:54;21.80;91.50
18337;DHT22;9294;51.106;7.028;2023-05-07T03:26:21;21.80;91.50
18337;DHT22;9294;51.106;7.028;2023-05-07T03:28:47;21.90;91.60
18337;DHT22;9294;51.106;7.028;2023-05-07T03:31:14;21.90;91.60
18337;DHT22;9294;51.106;7.028;2023-05-07T03:33:50;21.80;91.50
18337;DHT22;9294;51.106;7.028;2023-05-07T03:36:17;21.90;91.60
18337;DHT22;9294;51.106;7.028;2023-05-07T03:38:44;21.80;91.50
18337;DHT22;9294;51.106;7.028;2023-05-07T03:41:12;21.80;91.50
18337;DHT22;9294;51.106;7.028;2023-05-07T03:46:06;21.80;91.60
18337;DHT22;9294;51.106;7.028;2023-05-07T03:48:32;22.30;91.80
18337;DHT22;9294;51.106;7.028;2023-05-07T03:53:26;21.90;91.60
18337;DHT22;9294;51.106;7.028;2023-05-07T03:55:53;21.70;91.50
18337;DHT22;9294;51.106;7.028;2023-05-07T03:58:21;21.60;91.40
18337;DHT22;9294;51.106;7.028;2023-05-07T04:00:47;22.00;91.60
18337;DHT22;9294;51.106;7.028;2023-05-07T04:08:09;21.80;91.50
18337;DHT22;9294;51.106;7.028;2023-05-07T04:13:02;21.80;91.50
18337;DHT22;9294;51.106;7.028;2023-05-07T04:15:31;21.80;91.50
18337;DHT22;9294;51.106;7.028;2023-05-07T04:22:51;21.60;91.40
18337;DHT22;9294;51.106;7.028;2023-05-07T04:27:45;21.70;91.50
18337;DHT22;9294;51.106;7.028;2023-05-07T04:30:13;21.60;91.40
18337;DHT22;9294;51.106;7.028;2023-05-07T04:32:41;21.80;91.60
18337;DHT22;9294;51.106;7.028;2023-05-07T04:35:07;21.80;91.60
18337;DHT22;9294;51.106;7.028;2023-05-07T04:40:01;21.70;91.50
18337;DHT22;9294;51.106;7.028;2023-05-07T04:44:56;21.80;91.60
18337;DHT22;9294;51.106;7.028;2023-05-07T04:49:51;21.50;91.40
18337;DHT22;9294;51.106;7.028;2023-05-07T04:52:18;21.70;91.50
18337;DHT22;9294;51.106;7.028;2023-05-07T04:54:45;21.80;91.60
18337;DHT22;9294;51.106;7.028;2023-05-07T04:57:12;21.80;91.60
18337;DHT22;9294;51.106;7.028;2023-05-07T04:59:39;22.00;91.60
18337;DHT22;9294;51.106;7.028;2023-05-07T05:04:32;21.80;91.60
18337;DHT22;9294;51.106;7.028;2023-05-07T05:07:00;21.70;91.50
18337;DHT22;9294;51.106;7.028;2023-05-07T05:11:55;21.80;91.70
18337;DHT22;9294;51.106;7.028;2023-05-07T05:19:16;21.60;91.70
18337;DHT22;9294;51.106;7.028;2023-05-07T05:24:11;21.90;92.30
18337;DHT22;9294;51.106;7.028;2023-05-07T05:29:05;22.00;91.90
18337;DHT22;9294;51.106;7.028;2023-05-07T05:31:33;22.00;91.70
18337;DHT22;9294;51.106;7.028;2023-05-07T05:34:00;21.80;91.50
18337;DHT22;9294;51.106;7.028;2023-05-07T05:38:53;22.10;91.30
18337;DHT22;9294;51.106;7.028;2023-05-07T05:41:21;22.20;91.20
18337;DHT22;9294;51.106;7.028;2023-05-07T05:46:15;22.20;91.00
18337;DHT22;9294;51.106;7.028;2023-05-07T05:53:36;22.10;91.60
18337;DHT22;9294;51.106;7.028;2023-05-07T05:56:03;22.40;91.20
18337;DHT22;9294;51.106;7.028;2023-05-07T05:58:31;22.50;91.10
18337;DHT22;9294;51.106;7.028;2023-05-07T06:00:58;22.30;91.00
18337;DHT22;9294;51.106;7.028;2023-05-07T06:05:52;22.30;91.10
18337;DHT22;9294;51.106;7.028;2023-05-07T06:08:19;22.50;91.30
18337;DHT22;9294;51.106;7.028;2023-05-07T06:13:12;22.50;91.50
18337;DHT22;9294;51.106;7.028;2023-05-07T06:15:40;22.50;91.40
18337;DHT22;9294;51.106;7.028;2023-05-07T06:18:07;22.80;91.60
18337;DHT22;9294;51.106;7.028;2023-05-07T06:23:01;22.20;91.40
18337;DHT22;9294;51.106;7.028;2023-05-07T06:25:28;22.90;91.80
18337;DHT22;9294;51.106;7.028;2023-05-07T06:27:54;22.70;91.70
18337;DHT22;9294;51.106;7.028;2023-05-07T06:30:21;22.30;91.70
18337;DHT22;9294;51.106;7.028;2023-05-07T06:32:49;22.40;91.70
18337;DHT22;9294;51.106;7.028;2023-05-07T06:35:16;22.30;91.70
18337;DHT22;9294;51.106;7.028;2023-05-07T06:37:42;22.50;91.80
18337;DHT22;9294;51.106;7.028;2023-05-07T06:40:10;22.20;91.80
18337;DHT22;9294;51.106;7.028;2023-05-07T06:45:05;22.50;92.00
18337;DHT22;9294;51.106;7.028;2023-05-07T06:47:32;22.60;92.00
18337;DHT22;9294;51.106;7.028;2023-05-07T06:50:00;22.20;91.90
18337;DHT22;9294;51.106;7.028;2023-05-07T06:54:54;22.50;92.00
18337;DHT22;9294;51.106;7.028;2023-05-07T06:57:20;22.40;92.10
18337;DHT22;9294;51.106;7.028;2023-05-07T06:59:47;23.00;92.30
18337;DHT22;9294;51.106;7.028;2023-05-07T07:02:14;22.70;92.20
18337;DHT22;9294;51.106;7.028;2023-05-07T07:04:40;22.60;92.20
18337;DHT22;9294;51.106;7.028;2023-05-07T07:07:08;22.60;92.20
18337;DHT22;9294;51.106;7.028;2023-05-07T07:09:35;22.60;92.20
18337;DHT22;9294;51.106;7.028;2023-05-07T07:16:56;22.40;92.00
18337;DHT22;9294;51.106;7.028;2023-05-07T07:19:23;22.50;92.10
18337;DHT22;9294;51.106;7.028;2023-05-07T07:24:18;22.70;92.30
18337;DHT22;9294;51.106;7.028;2023-05-07T07:29:13;22.80;92.50
18337;DHT22;9294;51.106;7.028;2023-05-07T07:31:40;22.60;92.60
18337;DHT22;9294;51.106;7.028;2023-05-07T07:34:07;22.80;92.80
18337;DHT22;9294;51.106;7.028;2023-05-07T07:41:29;22.70;93.00
18337;DHT22;9294;51.106;7.028;2023-05-07T07:43:55;22.70;93.10
18337;DHT22;9294;51.106;7.028;2023-05-07T07:46:22;22.70;93.10
18337;DHT22;9294;51.106;7.028;2023-05-07T07:56:10;22.50;93.20
18337;DHT22;9294;51.106;7.028;2023-05-07T07:58:38;22.70;93.00
18337;DHT22;9294;51.106;7.028;2023-05-07T08:01:05;22.40;93.00
18337;DHT22;9294;51.106;7.028;2023-05-07T08:05:59;22.60;92.90
18337;DHT22;9294;51.106;7.028;2023-05-07T08:08:26;22.70;93.30
18337;DHT22;9294;51.106;7.028;2023-05-07T08:13:19;22.70;93.10
18337;DHT22;9294;51.106;7.028;2023-05-07T08:15:47;22.70;92.90
18337;DHT22;9294;51.106;7.028;2023-05-07T08:18:14;22.70;92.90
18337;DHT22;9294;51.106;7.028;2023-05-07T08:20:41;22.70;92.90
18337;DHT22;9294;51.106;7.028;2023-05-07T08:23:08;22.70;92.90
18337;DHT22;9294;51.106;7.028;2023-05-07T08:28:03;22.70;93.00
18337;DHT22;9294;51.106;7.028;2023-05-07T08:30:29;22.70;93.00
18337;DHT22;9294;51.106;7.028;2023-05-07T08:32:57;22.80;93.10
18337;DHT22;9294;51.106;7.028;2023-05-07T08:42:49;22.70;93.10
18337;DHT22;9294;51.106;7.028;2023-05-07T08:45:17;22.70;93.10
18337;DHT22;9294;51.106;7.028;2023-05-07T08:47:47;22.50;93.10
18337;DHT22;9294;51.106;7.028;2023-05-07T08:50:20;22.80;93.40
18337;DHT22;9294;51.106;7.028;2023-05-07T08:52:47;22.50;93.50
18337;DHT22;9294;51.106;7.028;2023-05-07T08:55:14;22.70;93.30
18337;DHT22;9294;51.106;7.028;2023-05-07T08:57:41;22.70;93.40
18337;DHT22;9294;51.106;7.028;2023-05-07T09:00:09;22.70;93.20
18337;DHT22;9294;51.106;7.028;2023-05-07T09:02:36;22.80;93.10
18337;DHT22;9294;51.106;7.028;2023-05-07T09:05:04;22.60;92.90
18337;DHT22;9294;51.106;7.028;2023-05-07T09:07:32;22.70;93.10
18337;DHT22;9294;51.106;7.028;2023-05-07T09:10:01;22.70;93.10
18337;DHT22;9294;51.106;7.028;2023-05-07T09:14:56;22.90;93.20
18337;DHT22;9294;51.106;7.028;2023-05-07T09:19:49;22.70;93.10
18337;DHT22;9294;51.106;7.028;2023-05-07T09:22:16;23.10;93.20
18337;DHT22;9294;51.106;7.028;2023-05-07T09:24:48;22.80;93.00
18337;DHT22;9294;51.106;7.028;2023-05-07T09:29:43;22.40;92.80
18337;DHT22;9294;51.106;7.028;2023-05-07T09:37:05;22.70;93.00
18337;DHT22;9294;51.106;7.028;2023-05-07T09:39:39;22.70;93.00
18337;DHT22;9294;51.106;7.028;2023-05-07T09:42:08;22.80;93.00
18337;DHT22;9294;51.106;7.028;2023-05-07T09:44:35;22.80;92.90
18337;DHT22;9294;51.106;7.028;2023-05-07T09:47:04;22.60;92.80
18337;DHT22;9294;51.106;7.028;2023-05-07T09:49:34;22.60;92.80
18337;DHT22;9294;51.106;7.028;2023-05-07T09:52:03;22.70;92.80
18337;DHT22;9294;51.106;7.028;2023-05-07T09:54:31;22.70;92.80
18337;DHT22;9294;51.106;7.028;2023-05-07T09:57:01;22.80;92.90
18337;DHT22;9294;51.106;7.028;2023-05-07T09:59:31;22.70;92.90
18337;DHT22;9294;51.106;7.028;2023-05-07T10:01:59;22.70;93.00
18337;DHT22;9294;51.106;7.028;2023-05-07T10:04:26;22.70;93.10
18337;DHT22;9294;51.106;7.028;2023-05-07T10:06:53;22.60;92.90
18337;DHT22;9294;51.106;7.028;2023-05-07T10:11:49;22.70;93.00
18337;DHT22;9294;51.106;7.028;2023-05-07T10:14:16;23.10;93.40
18337;DHT22;9294;51.106;7.028;2023-05-07T10:16:44;22.70;93.20
18337;DHT22;9294;51.106;7.028;2023-05-07T10:19:12;22.70;93.10
18337;DHT22;9294;51.106;7.028;2023-05-07T10:21:44;22.50;93.10
18337;DHT22;9294;51.106;7.028;2023-05-07T10:24:19;22.80;93.20
18337;DHT22;9294;51.106;7.028;2023-05-07T10:26:50;23.00;93.40
18337;DHT22;9294;51.106;7.028;2023-05-07T10:29:21;22.70;93.20
18337;DHT22;9294;51.106;7.028;2023-05-07T10:31:57;22.80;93.50
18337;DHT22;9294;51.106;7.028;2023-05-07T10:34:29;22.70;93.30
18337;DHT22;9294;51.106;7.028;2023-05-07T10:36:56;22.70;93.40
18337;DHT22;9294;51.106;7.028;2023-05-07T10:39:24;22.60;93.40
18337;DHT22;9294;51.106;7.028;2023-05-07T10:41:51;22.60;93.50
18337;DHT22;9294;51.106;7.028;2023-05-07T10:44:27;22.70;93.50
18337;DHT22;9294;51.106;7.028;2023-05-07T10:47:05;22.60;93.40
18337;DHT22;9294;51.106;7.028;2023-05-07T10:52:15;22.60;93.50
18337;DHT22;9294;51.106;7.028;2023-05-07T10:57:33;22.60;93.30
18337;DHT22;9294;51.106;7.028;2023-05-07T11:03:05;22.60;93.30
18337;DHT22;9294;51.106;7.028;2023-05-07T11:05:33;22.70;93.30
18337;DHT22;9294;51.106;7.028;2023-05-07T11:08:00;22.70;93.30
18337;DHT22;9294;51.106;7.028;2023-05-07T11:10:48;22.50;93.20
18337;DHT22;9294;51.106;7.028;2023-05-07T11:13:16;22.50;93.20
18337;DHT22;9294;51.106;7.028;2023-05-07T11:15:44;22.60;93.20
18337;DHT22;9294;51.106;7.028;2023-05-07T11:18:14;22.60;93.20
18337;DHT22;9294;51.106;7.028;2023-05-07T11:20:55;22.40;93.20
18337;DHT22;9294;51.106;7.028;2023-05-07T11:26:46;22.60;93.30
18337;DHT22;9294;51.106;7.028;2023-05-07T11:29:15;22.60;93.30
18337;DHT22;9294;51.106;7.028;2023-05-07T11:31:42;22.40;93.20
18337;DHT22;9294;51.106;7.028;2023-05-07T11:34:11;22.60;93.30
18337;DHT22;9294;51.106;7.028;2023-05-07T11:36:42;22.60;93.20
18337;DHT22;9294;51.106;7.028;2023-05-07T11:39:27;22.60;93.20
18337;DHT22;9294;51.106;7.028;2023-05-07T11:44:21;22.60;93.20
18337;DHT22;9294;51.106;7.028;2023-05-07T11:46:48;22.60;93.20
18337;DHT22;9294;51.106;7.028;2023-05-07T11:49:17;22.60;93.20
18337;DHT22;9294;51.106;7.028;2023-05-07T11:51:44;22.60;93.20
18337;DHT22;9294;51.106;7.028;2023-05-07T11:54:15;22.60;93.10
18337;DHT22;9294;51.106;7.028;2023-05-07T11:56:42;22.50;93.10
18337;DHT22;9294;51.106;7.028;2023-05-07T12:04:04;22.60;93.10
18337;DHT22;9294;51.106;7.028;2023-05-07T12:06:36;22.40;93.10
18337;DHT22;9294;51.106;7.028;2023-05-07T12:09:03;22.60;93.10
18337;DHT22;9294;51.106;7.028;2023-05-07T12:11:30;22.50;93.10
18337;DHT22;9294;51.106;7.028;2023-05-07T12:18:51;22.60;93.00
18337;DHT22;9294;51.106;7.028;2023-05-07T12:21:20;22.60;93.10
18337;DHT22;9294;51.106;7.028;2023-05-07T12:23:48;22.70;93.20
18337;DHT22;9294;51.106;7.028;2023-05-07T12:28:42;22.60;93.10
18337;DHT22;9294;51.106;7.028;2023-05-07T12:31:09;22.40;93.00
18337;DHT22;9294;51.106;7.028;2023-05-07T12:33:35;22.60;93.10
18337;DHT22;9294;51.106;7.028;2023-05-07T12:36:05;22.20;92.90
18337;DHT22;9294;51.106;7.028;2023-05-07T12:38:37;22.70;93.10
18337;DHT22;9294;51.106;7.028;2023-05-07T12:41:08;22.80;93.20
18337;DHT22;9294;51.106;7.028;2023-05-07T12:43:35;22.50;93.10
18337;DHT22;9294;51.106;7.028;2023-05-07T12:46:04;22.50;93.00
18337;DHT22;9294;51.106;7.028;2023-05-07T12:48:31;22.60;93.10
18337;DHT22;9294;51.106;7.028;2023-05-07T12:51:00;22.50;93.00
18337;DHT22;9294;51.106;7.028;2023-05-07T12:53:27;22.50;93.00
18337;DHT22;9294;51.106;7.028;2023-05-07T12:55:56;21.90;92.70
18337;DHT22;9294;51.106;7.028;2023-05-07T12:58:26;22.50;93.00
18337;DHT22;9294;51.106;7.028;2023-05-07T13:00:53;22.50;93.00
18337;DHT22;9294;51.106;7.028;2023-05-07T13:03:25;22.50;93.00
18337;DHT22;9294;51.106;7.028;2023-05-07T13:05:52;22.40;93.00
18337;DHT22;9294;51.106;7.028;2023-05-07T13:08:27;22.30;92.90
18337;DHT22;9294;51.106;7.028;2023-05-07T13:10:54;22.50;93.00
18337;DHT22;9294;51.106;7.028;2023-05-07T13:13:21;22.40;92.90
18337;DHT22;9294;51.106;7.028;2023-05-07T13:15:49;22.50;93.00
18337;DHT22;9294;51.106;7.028;2023-05-07T13:18:16;22.50;93.00
18337;DHT22;9294;51.106;7.028;2023-05-07T13:23:10;22.50;93.00
18337;DHT22;9294;51.106;7.028;2023-05-07T13:28:04;22.50;92.90
18337;DHT22;9294;51.106;7.028;2023-05-07T13:30:30;22.70;93.00
18337;DHT22;9294;51.106;7.028;2023-05-07T13:32:58;22.50;92.90
18337;DHT22;9294;51.106;7.028;2023-05-07T13:40:20;22.20;92.80
18337;DHT22;9294;51.106;7.028;2023-05-07T13:42:47;22.50;92.90
18337;DHT22;9294;51.106;7.028;2023-05-07T13:50:10;22.50;92.90
18337;DHT22;9294;51.106;7.028;2023-05-07T13:57:33;22.30;92.80
18337;DHT22;9294;51.106;7.028;2023-05-07T14:02:27;22.50;93.00
18337;DHT22;9294;51.106;7.028;2023-05-07T14:07:22;22.60;93.10
18337;DHT22;9294;51.106;7.028;2023-05-07T14:12:16;22.50;93.00
18337;DHT22;9294;51.106;7.028;2023-05-07T14:14:42;22.50;93.00
18337;DHT22;9294;51.106;7.028;2023-05-07T14:19:38;22.40;93.00
18337;DHT22;9294;51.106;7.028;2023-05-07T14:24:33;22.50;93.00
18337;DHT22;9294;51.106;7.028;2023-05-07T14:27:00;22.50;93.00
18337;DHT22;9294;51.106;7.028;2023-05-07T14:34:20;22.50;93.00
18337;DHT22;9294;51.106;7.028;2023-05-07T14:39:14;22.50;93.00
18337;DHT22;9294;51.106;7.028;2023-05-07T14:41:42;22.40;93.00
18337;DHT22;9294;51.106;7.028;2023-05-07T14:44:09;22.30;92.90
18337;DHT22;9294;51.106;7.028;2023-05-07T14:49:03;22.40;93.00
18337;DHT22;9294;51.106;7.028;2023-05-07T14:56:25;22.40;93.00
18337;DHT22;9294;51.106;7.028;2023-05-07T14:58:53;22.70;93.20
18337;DHT22;9294;51.106;7.028;2023-05-07T15:01:20;22.50;93.10
18337;DHT22;9294;51.106;7.028;2023-05-07T15:06:14;22.60;93.10
18337;DHT22;9294;51.106;7.028;2023-05-07T15:08:41;22.30;93.00
18337;DHT22;9294;51.106;7.028;2023-05-07T15:16:03;22.40;93.00
18337;DHT22;9294;51.106;7.028;2023-05-07T15:18:30;22.50;93.00
18337;DHT22;9294;51.106;7.028;2023-05-07T15:20:57;22.50;93.10
18337;DHT22;9294;51.106;7.028;2023-05-07T15:23:24;22.60;93.10
18337;DHT22;9294;51.106;7.028;2023-05-07T15:25:51;22.50;93.10
18337;DHT22;9294;51.106;7.028;2023-05-07T15:28:18;22.40;93.10
18337;DHT22;9294;51.106;7.028;2023-05-07T15:30:45;22.50;93.10
18337;DHT22;9294;51.106;7.028;2023-05-07T15:33:13;22.70;93.10
18337;DHT22;9294;51.106;7.028;2023-05-07T15:35:40;22.50;93.20
18337;DHT22;9294;51.106;7.028;2023-05-07T15:40:34;22.50;93.20
18337;DHT22;9294;51.106;7.028;2023-05-07T15:43:03;22.50;93.10
18337;DHT22;9294;51.106;7.028;2023-05-07T15:45:29;22.40;93.10
18337;DHT22;9294;51.106;7.028;2023-05-07T15:50:25;22.40;93.10
18337;DHT22;9294;51.106;7.028;2023-05-07T15:52:51;22.50;93.20
18337;DHT22;9294;51.106;7.028;2023-05-07T15:57:45;22.40;93.20
18337;DHT22;9294;51.106;7.028;2023-05-07T16:00:13;22.40;93.20
18337;DHT22;9294;51.106;7.028;2023-05-07T16:05:08;22.40;93.20
18337;DHT22;9294;51.106;7.028;2023-05-07T16:07:38;22.40;93.10
18337;DHT22;9294;51.106;7.028;2023-05-07T16:10:06;22.40;93.10
18337;DHT22;9294;51.106;7.028;2023-05-07T16:15:01;22.20;93.00
18337;DHT22;9294;51.106;7.028;2023-05-07T16:19:55;22.80;93.30
18337;DHT22;9294;51.106;7.028;2023-05-07T16:24:51;22.40;93.10
18337;DHT22;9294;51.106;7.028;2023-05-07T16:27:18;22.40;93.10
18337;DHT22;9294;51.106;7.028;2023-05-07T16:29:45;22.30;93.10
18337;DHT22;9294;51.106;7.028;2023-05-07T16:42:01;22.40;93.10
18337;DHT22;9294;51.106;7.028;2023-05-07T16:46:55;22.30;93.10
18337;DHT22;9294;51.106;7.028;2023-05-07T16:49:22;22.50;93.20
18337;DHT22;9294;51.106;7.028;2023-05-07T16:54:15;22.50;93.20
18337;DHT22;9294;51.106;7.028;2023-05-07T16:56:42;22.40;93.10
18337;DHT22;9294;51.106;7.028;2023-05-07T16:59:10;22.40;93.10
18337;DHT22;9294;51.106;7.028;2023-05-07T17:04:04;22.40;93.20
18337;DHT22;9294;51.106;7.028;2023-05-07T17:06:31;22.40;93.20
18337;DHT22;9294;51.106;7.028;2023-05-07T17:08:57;22.20;93.10
18337;DHT22;9294;51.106;7.028;2023-05-07T17:11:24;22.30;93.20
18337;DHT22;9294;51.106;7.028;2023-05-07T17:13:55;22.40;93.20
18337;DHT22;9294;51.106;7.028;2023-05-07T17:16:23;22.30;93.20
18337;DHT22;9294;51.106;7.028;2023-05-07T17:18:50;22.20;93.10
18337;DHT22;9294;51.106;7.028;2023-05-07T17:21:17;22.30;93.20
18337;DHT22;9294;51.106;7.028;2023-05-07T17:26:11;22.10;93.10
18337;DHT22;9294;51.106;7.028;2023-05-07T17:31:05;22.10;93.20
18337;DHT22;9294;51.106;7.028;2023-05-07T17:33:33;22.00;93.20
18337;DHT22;9294;51.106;7.028;2023-05-07T17:38:27;22.40;93.40
18337;DHT22;9294;51.106;7.028;2023-05-07T17:40:54;22.40;93.50
18337;DHT22;9294;51.106;7.028;2023-05-07T17:45:48;22.30;93.40
18337;DHT22;9294;51.106;7.028;2023-05-07T17:50:44;22.20;93.50
18337;DHT22;9294;51.106;7.028;2023-05-07T17:53:10;22.30;93.50
18337;DHT22;9294;51.106;7.028;2023-05-07T17:55:40;22.30;93.50
18337;DHT22;9294;51.106;7.028;2023-05-07T18:03:02;22.50;93.60
18337;DHT22;9294;51.106;7.028;2023-05-07T18:05:29;22.30;93.70
18337;DHT22;9294;51.106;7.028;2023-05-07T18:07:57;22.20;93.60
18337;DHT22;9294;51.106;7.028;2023-05-07T18:12:51;22.30;93.60
18337;DHT22;9294;51.106;7.028;2023-05-07T18:15:18;22.30;93.60
18337;DHT22;9294;51.106;7.028;2023-05-07T18:17:45;22.30;93.70
18337;DHT22;9294;51.106;7.028;2023-05-07T18:22:38;22.40;93.70
18337;DHT22;9294;51.106;7.028;2023-05-07T18:25:07;22.50;93.80
18337;DHT22;9294;51.106;7.028;2023-05-07T18:27:34;22.20;93.70
18337;DHT22;9294;51.106;7.028;2023-05-07T18:32:28;22.30;93.70
18337;DHT22;9294;51.106;7.028;2023-05-07T18:37:22;22.30;93.70
18337;DHT22;9294;51.106;7.028;2023-05-07T18:39:48;22.40;93.80
18337;DHT22;9294;51.106;7.028;2023-05-07T18:42:16;22.30;93.70
18337;DHT22;9294;51.106;7.028;2023-05-07T18:44:43;22.30;93.70
18337;DHT22;9294;51.106;7.028;2023-05-07T18:47:10;22.30;93.70
18337;DHT22;9294;51.106;7.028;2023-05-07T18:49:38;22.60;93.90
18337;DHT22;9294;51.106;7.028;2023-05-07T18:52:04;22.30;93.80
18337;DHT22;9294;51.106;7.028;2023-05-07T18:56:58;22.40;93.80
18337;DHT22;9294;51.106;7.028;2023-05-07T18:59:26;22.30;93.80
18337;DHT22;9294;51.106;7.028;2023-05-07T19:01:53;22.30;93.80
18337;DHT22;9294;51.106;7.028;2023-05-07T19:06:47;22.20;93.80
18337;DHT22;9294;51.106;7.028;2023-05-07T19:09:13;22.30;93.80
18337;DHT22;9294;51.106;7.028;2023-05-07T19:16:36;22.10;93.70
18337;DHT22;9294;51.106;7.028;2023-05-07T19:19:03;22.40;93.90
18337;DHT22;9294;51.106;7.028;2023-05-07T19:21:31;22.50;93.90
18337;DHT22;9294;51.106;7.028;2023-05-07T19:23:57;22.30;93.90
18337;DHT22;9294;51.106;7.028;2023-05-07T19:26:24;22.30;93.90
18337;DHT22;9294;51.106;7.028;2023-05-07T19:31:19;22.20;93.90
18337;DHT22;9294;51.106;7.028;2023-05-07T19:33:47;22.30;93.90
18337;DHT22;9294;51.106;7.028;2023-05-07T19:36:14;22.30;93.90
18337;DHT22;9294;51.106;7.028;2023-05-07T19:41:09;22.40;93.90
18337;DHT22;9294;51.106;7.028;2023-05-07T19:46:04;22.30;93.80
18337;DHT22;9294;51.106;7.028;2023-05-07T19:48:31;22.70;94.10
18337;DHT22;9294;51.106;7.028;2023-05-07T19:50:59;22.60;94.00
18337;DHT22;9294;51.106;7.028;2023-05-07T19:53:26;22.30;94.00
18337;DHT22;9294;51.106;7.028;2023-05-07T19:56:04;22.30;93.90
18337;DHT22;9294;51.106;7.028;2023-05-07T19:58:31;22.20;93.90
18337;DHT22;9294;51.106;7.028;2023-05-07T20:03:26;22.20;94.00
18337;DHT22;9294;51.106;7.028;2023-05-07T20:08:21;22.30;94.00
18337;DHT22;9294;51.106;7.028;2023-05-07T20:13:16;22.30;94.00
18337;DHT22;9294;51.106;7.028;2023-05-07T20:18:10;22.20;94.00
18337;DHT22;9294;51.106;7.028;2023-05-07T20:20:39;22.10;93.90
18337;DHT22;9294;51.106;7.028;2023-05-07T20:23:06;22.10;93.90
18337;DHT22;9294;51.106;7.028;2023-05-07T20:25:34;22.20;93.90
18337;DHT22;9294;51.106;7.028;2023-05-07T20:37:49;22.20;94.20
18337;DHT22;9294;51.106;7.028;2023-05-07T20:40:16;22.50;94.50
18337;DHT22;9294;51.106;7.028;2023-05-07T20:42:44;22.30;94.50
18337;DHT22;9294;51.106;7.028;2023-05-07T20:45:11;22.30;94.60
18337;DHT22;9294;51.106;7.028;2023-05-07T20:47:37;22.30;94.60
18337;DHT22;9294;51.106;7.028;2023-05-07T20:50:05;22.30;94.60
18337;DHT22;9294;51.106;7.028;2023-05-07T20:54:59;22.20;94.60
18337;DHT22;9294;51.106;7.028;2023-05-07T20:57:25;22.10;94.60
18337;DHT22;9294;51.106;7.028;2023-05-07T20:59:53;22.20;94.60
18337;DHT22;9294;51.106;7.028;2023-05-07T21:04:47;22.30;94.60
18337;DHT22;9294;51.106;7.028;2023-05-07T21:07:15;22.30;94.60
18337;DHT22;9294;51.106;7.028;2023-05-07T21:09:42;22.30;94.70
18337;DHT22;9294;51.106;7.028;2023-05-07T21:14:36;22.20;94.50
18337;DHT22;9294;51.106;7.028;2023-05-07T21:17:05;22.20;94.60
18337;DHT22;9294;51.106;7.028;2023-05-07T21:19:32;22.10;94.60
18337;DHT22;9294;51.106;7.028;2023-05-07T21:21:58;22.40;94.70
18337;DHT22;9294;51.106;7.028;2023-05-07T21:24:25;22.30;94.60
18337;DHT22;9294;51.106;7.028;2023-05-07T21:26:52;22.20;94.60
18337;DHT22;9294;51.106;7.028;2023-05-07T21:29:19;22.40;94.60
18337;DHT22;9294;51.106;7.028;2023-05-07T21:31:46;22.30;94.70
18337;DHT22;9294;51.106;7.028;2023-05-07T21:34:14;22.30;94.70
18337;DHT22;9294;51.106;7.028;2023-05-07T21:36:41;22.20;94.60
18337;DHT22;9294;51.106;7.028;2023-05-07T21:39:08;22.40;94.70
18337;DHT22;9294;51.106;7.028;2023-05-07T21:41:35;22.20;94.60
18337;DHT22;9294;51.106;7.028;2023-05-07T21:44:02;22.20;94.60
18337;DHT22;9294;51.106;7.028;2023-05-07T21:46:29;22.30;94.70